createdAt,value
2024-01-21T00:00:35.034Z,4.57
2024-01-21T00:03:04.599Z,4.28
2024-01-21T00:05:35.140Z,5.07
2024-01-21T00:08:07.299Z,4.90
2024-01-21T00:10:36.496Z,3.90
2024-01-21T00:13:07.319Z,4.90
2024-01-21T00:15:36.904Z,5.68
2024-01-21T00:18:06.856Z,5.63
2024-01-21T00:20:38.566Z,4.65
2024-01-21T00:23:08.797Z,5.72
2024-01-21T00:25:38.857Z,5.43
2024-01-21T00:28:08.301Z,6.25
2024-01-21T00:30:37.566Z,5.15
2024-01-21T00:33:08.804Z,6.03
2024-01-21T00:35:39.995Z,9.65
2024-01-21T00:38:09.522Z,12.43
2024-01-21T00:40:41.350Z,11.88
2024-01-21T00:43:11.413Z,6.30
2024-01-21T00:45:40.615Z,5.30
2024-01-21T00:48:10.263Z,5.47
2024-01-21T00:50:41.125Z,4.97
2024-01-21T00:53:10.240Z,4.95
2024-01-21T00:55:39.023Z,5.95
2024-01-21T00:58:08.270Z,4.70
2024-01-21T01:00:42.009Z,5.07
2024-01-21T01:03:11.693Z,5.38
2024-01-21T01:05:42.380Z,5.32
2024-01-21T01:08:11.581Z,4.45
2024-01-21T01:10:41.930Z,4.90
2024-01-21T01:13:10.863Z,5.13
2024-01-21T01:15:40.865Z,3.85
2024-01-21T01:18:10.328Z,4.38
2024-01-21T01:20:39.319Z,4.38
2024-01-21T01:23:09.842Z,4.50
2024-01-21T01:25:39.240Z,4.55
2024-01-21T01:28:08.662Z,4.00
2024-01-21T01:30:40.319Z,3.83
2024-01-21T01:33:10.159Z,4.78
2024-01-21T01:35:39.719Z,4.20
2024-01-21T01:38:13.697Z,3.83
2024-01-21T01:40:43.008Z,3.75
2024-01-21T01:43:12.500Z,3.45
2024-01-21T01:45:41.781Z,3.45
2024-01-21T01:48:10.958Z,3.80
2024-01-21T01:50:40.117Z,3.80
2024-01-21T01:53:10.893Z,3.35
2024-01-21T01:55:40.125Z,3.70
2024-01-21T01:58:09.610Z,3.70
2024-01-21T02:00:39.672Z,3.60
2024-01-21T02:03:09.388Z,3.80
2024-01-21T02:05:40.986Z,4.18
2024-01-21T02:08:11.449Z,4.50
2024-01-21T02:10:40.693Z,4.18
2024-01-21T02:13:11.746Z,5.10
2024-01-21T02:15:41.779Z,4.28
2024-01-21T02:18:11.142Z,4.00
2024-01-21T02:20:41.564Z,4.18
2024-01-21T02:23:12.084Z,4.72
2024-01-21T02:25:42.017Z,4.63
2024-01-21T02:28:12.263Z,3.95
2024-01-21T02:30:43.421Z,4.82
2024-01-21T02:33:15.531Z,5.53
2024-01-21T02:35:46.091Z,4.45
2024-01-21T02:38:20.714Z,4.90
2024-01-21T02:40:51.169Z,4.55
2024-01-21T02:43:20.529Z,4.60
2024-01-21T02:45:51.781Z,4.93
2024-01-21T02:48:22.994Z,4.68
2024-01-21T02:50:53.362Z,4.38
2024-01-21T02:53:23.715Z,3.92
2024-01-21T02:55:53.057Z,4.00
2024-01-21T02:58:22.314Z,4.53
2024-01-21T03:00:52.026Z,4.47
2024-01-21T03:03:21.524Z,5.22
2024-01-21T03:05:50.535Z,5.38
2024-01-21T03:08:20.678Z,4.03
2024-01-21T03:10:51.797Z,4.20
2024-01-21T03:13:20.863Z,3.92
2024-01-21T03:15:50.155Z,5.13
2024-01-21T03:18:19.377Z,5.07
2024-01-21T03:20:49.607Z,4.28
2024-01-21T03:23:20.207Z,3.53
2024-01-21T03:25:50.718Z,3.70
2024-01-21T03:28:21.144Z,3.25
2024-01-21T03:30:50.258Z,3.80
2024-01-21T03:33:19.359Z,3.35
2024-01-21T03:35:49.856Z,4.07
2024-01-21T03:38:21.207Z,3.58
2024-01-21T03:40:52.047Z,3.35
2024-01-21T03:43:20.953Z,3.33
2024-01-21T03:45:51.320Z,3.55
2024-01-21T03:48:20.693Z,3.72
2024-01-21T03:50:49.960Z,2.90
2024-01-21T03:53:20.618Z,3.38
2024-01-21T03:55:51.236Z,3.50
2024-01-21T03:58:20.054Z,3.85
2024-01-21T04:00:49.233Z,3.00
2024-01-21T04:03:19.978Z,3.05
2024-01-21T04:05:49.437Z,3.60
2024-01-21T04:08:18.845Z,3.80
2024-01-21T04:10:48.791Z,2.78
2024-01-21T04:13:20.486Z,4.13
2024-01-21T04:15:49.908Z,4.20
2024-01-21T04:18:21.558Z,3.10
2024-01-21T04:20:51.219Z,3.83
2024-01-21T04:23:20.830Z,3.80
2024-01-21T04:25:51.509Z,3.78
2024-01-21T04:28:21.896Z,3.60
2024-01-21T04:30:51.681Z,3.25
2024-01-21T04:33:20.871Z,3.45
2024-01-21T04:35:49.875Z,3.72
2024-01-21T04:38:19.252Z,3.85
2024-01-21T04:40:49.015Z,3.30
2024-01-21T04:43:18.365Z,3.20
2024-01-21T04:45:50.014Z,3.60
2024-01-21T04:48:19.609Z,3.70
2024-01-21T04:50:53.159Z,3.22
2024-01-21T04:53:22.753Z,3.35
2024-01-21T04:55:53.181Z,3.45
2024-01-21T04:58:29.200Z,3.05
2024-01-21T05:00:59.999Z,3.05
2024-01-21T05:03:29.479Z,3.25
2024-01-21T05:05:59.592Z,3.42
2024-01-21T05:08:28.604Z,3.03
2024-01-21T05:10:58.426Z,3.10
2024-01-21T05:13:30.677Z,2.83
2024-01-21T05:16:01.821Z,2.35
2024-01-21T05:18:30.901Z,3.33
2024-01-21T05:20:59.754Z,3.55
2024-01-21T05:23:29.108Z,2.95
2024-01-21T05:25:58.255Z,3.05
2024-01-21T05:28:27.250Z,3.70
2024-01-21T05:30:57.518Z,2.85
2024-01-21T05:33:28.320Z,2.88
2024-01-21T05:35:57.914Z,2.92
2024-01-21T05:38:27.099Z,2.70
2024-01-21T05:40:56.087Z,3.58
2024-01-21T05:43:25.442Z,2.95
2024-01-21T05:45:55.125Z,2.92
2024-01-21T05:48:24.591Z,2.95
2024-01-21T05:50:55.435Z,2.97
2024-01-21T05:53:24.867Z,2.63
2024-01-21T05:55:54.391Z,3.05
2024-01-21T05:58:24.636Z,3.10
2024-01-21T06:00:53.498Z,2.85
2024-01-21T06:03:24.611Z,2.00
2024-01-21T06:05:55.516Z,2.90
2024-01-21T06:08:24.622Z,2.60
2024-01-21T06:10:53.889Z,3.05
2024-01-21T06:13:23.604Z,2.80
2024-01-21T06:15:53.073Z,2.55
2024-01-21T06:18:22.650Z,3.33
2024-01-21T06:20:53.103Z,2.67
2024-01-21T06:23:24.139Z,2.83
2024-01-21T06:25:53.804Z,2.88
2024-01-21T06:28:23.024Z,3.10
2024-01-21T06:30:52.143Z,2.47
2024-01-21T06:33:21.943Z,2.60
2024-01-21T06:35:51.926Z,2.03
2024-01-21T06:38:21.356Z,2.63
2024-01-21T06:40:53.267Z,2.15
2024-01-21T06:43:22.527Z,3.40
2024-01-21T06:45:52.298Z,3.05
2024-01-21T06:48:21.357Z,2.60
2024-01-21T06:50:52.480Z,1.70
2024-01-21T06:53:21.521Z,2.38
2024-01-21T06:55:52.203Z,3.28
2024-01-21T06:58:21.381Z,1.70
2024-01-21T07:00:53.383Z,2.60
2024-01-21T07:03:22.594Z,1.92
2024-01-21T07:05:52.106Z,2.42
2024-01-21T07:08:21.170Z,2.50
2024-01-21T07:10:51.812Z,2.75
2024-01-21T07:13:20.830Z,2.90
2024-01-21T07:15:50.111Z,2.92
2024-01-21T07:18:20.394Z,2.72
2024-01-21T07:20:50.136Z,2.92
2024-01-21T07:23:19.366Z,2.25
2024-01-21T07:25:49.444Z,2.45
2024-01-21T07:28:19.818Z,2.58
2024-01-21T07:30:48.970Z,2.38
2024-01-21T07:33:18.173Z,2.53
2024-01-21T07:35:51.357Z,2.53
2024-01-21T07:38:20.786Z,2.35
2024-01-21T07:40:50.661Z,2.50
2024-01-21T07:43:21.677Z,2.50
2024-01-21T07:45:53.660Z,2.45
2024-01-21T07:48:23.036Z,1.90
2024-01-21T07:50:52.533Z,1.90
2024-01-21T07:53:21.642Z,2.38
2024-01-21T07:55:51.132Z,2.65
2024-01-21T07:58:23.376Z,1.27
2024-01-21T08:00:52.595Z,2.45
2024-01-21T08:03:22.008Z,2.53
2024-01-21T08:05:51.779Z,2.45
2024-01-21T08:08:20.760Z,2.13
2024-01-21T08:10:49.561Z,2.97
2024-01-21T08:13:18.754Z,2.80
2024-01-21T08:15:49.565Z,2.95
2024-01-21T08:18:20.817Z,2.22
2024-01-21T08:20:50.399Z,2.20
2024-01-21T08:23:21.326Z,2.47
2024-01-21T08:25:52.572Z,2.53
2024-01-21T08:28:21.941Z,2.40
2024-01-21T08:30:52.636Z,2.60
2024-01-21T08:33:21.848Z,2.22
2024-01-21T08:35:51.003Z,2.30
2024-01-21T08:38:20.623Z,1.75
2024-01-21T08:40:50.093Z,2.10
2024-01-21T08:43:19.483Z,1.70
2024-01-21T08:45:50.784Z,2.60
2024-01-21T08:48:21.728Z,2.63
2024-01-21T08:50:53.883Z,2.22
2024-01-21T08:53:24.659Z,2.55
2024-01-21T08:55:54.798Z,3.05
2024-01-21T08:58:24.708Z,2.85
2024-01-21T09:00:54.014Z,2.80
2024-01-21T09:03:24.941Z,3.30
2024-01-21T09:05:54.269Z,3.20
2024-01-21T09:08:23.580Z,3.22
2024-01-21T09:10:52.548Z,2.88
2024-01-21T09:13:21.594Z,2.83
2024-01-21T09:15:50.516Z,2.38
2024-01-21T09:18:20.940Z,3.20
2024-01-21T09:20:51.567Z,2.72
2024-01-21T09:23:21.153Z,2.38
2024-01-21T09:25:51.445Z,2.65
2024-01-21T09:28:24.513Z,3.35
2024-01-21T09:30:53.583Z,2.80
2024-01-21T09:33:22.636Z,2.72
2024-01-21T09:35:53.148Z,2.47
2024-01-21T09:38:22.820Z,2.97
2024-01-21T09:41:00.316Z,3.40
2024-01-21T09:43:31.146Z,3.63
2024-01-21T09:46:00.662Z,3.55
2024-01-21T09:48:31.731Z,3.45
2024-01-21T09:51:04.045Z,3.15
2024-01-21T09:53:37.736Z,3.78
2024-01-21T09:56:11.706Z,2.95
2024-01-21T09:58:48.061Z,3.10
2024-01-21T10:01:18.716Z,3.60
2024-01-21T10:03:48.772Z,3.55
2024-01-21T10:06:20.043Z,4.00
2024-01-21T10:08:51.134Z,4.07
2024-01-21T10:11:21.440Z,3.40
2024-01-21T10:13:50.408Z,3.47
2024-01-21T10:16:21.146Z,3.58
2024-01-21T10:18:50.477Z,4.95
2024-01-21T10:21:21.987Z,3.17
2024-01-21T10:23:53.044Z,3.20
2024-01-21T10:26:22.480Z,4.60
2024-01-21T10:28:51.652Z,4.43
2024-01-21T10:31:20.694Z,3.15
2024-01-21T10:33:50.568Z,3.55
2024-01-21T10:36:25.363Z,4.40
2024-01-21T10:38:57.898Z,4.05
2024-01-21T10:41:32.553Z,4.10
2024-01-21T10:44:03.644Z,4.57
2024-01-21T10:46:35.867Z,4.30
2024-01-21T10:49:07.292Z,4.07
2024-01-21T10:51:42.461Z,5.07
2024-01-21T10:54:13.786Z,4.45
2024-01-21T10:56:45.120Z,4.10
2024-01-21T10:59:14.611Z,4.57
2024-01-21T11:01:45.623Z,4.10
2024-01-21T11:04:16.459Z,4.57
2024-01-21T11:06:51.784Z,4.85
2024-01-21T11:09:28.061Z,5.03
2024-01-21T11:11:58.073Z,4.43
2024-01-21T11:14:31.751Z,4.38
2024-01-21T11:17:04.932Z,4.13
2024-01-21T11:19:41.049Z,4.63
2024-01-21T11:22:16.244Z,5.28
2024-01-21T11:24:48.266Z,5.28
2024-01-21T11:27:18.464Z,5.03
2024-01-21T11:29:50.401Z,5.35
2024-01-21T11:32:27.446Z,4.90
2024-01-21T11:35:04.364Z,4.72
2024-01-21T11:37:35.426Z,4.85
2024-01-21T11:40:06.025Z,4.88
2024-01-21T11:42:36.617Z,4.60
2024-01-21T11:45:07.529Z,4.85
2024-01-21T11:47:37.915Z,4.78
2024-01-21T11:50:08.949Z,5.57
2024-01-21T11:52:39.371Z,4.40
2024-01-21T11:55:08.839Z,5.43
2024-01-21T11:57:38.094Z,5.30
2024-01-21T12:00:08.733Z,5.32
2024-01-21T12:02:42.321Z,5.28
2024-01-21T12:05:11.960Z,5.95
2024-01-21T12:07:42.942Z,4.97
2024-01-21T12:10:14.416Z,5.28
2024-01-21T12:12:45.292Z,6.03
2024-01-21T12:15:15.026Z,4.97
2024-01-21T12:17:55.600Z,4.53
2024-01-21T12:20:26.065Z,5.43
2024-01-21T12:22:59.668Z,5.55
2024-01-21T12:27:59.465Z,6.88
2024-01-21T12:30:28.849Z,5.65
2024-01-21T12:32:59.603Z,5.85
2024-01-21T12:35:29.909Z,4.93
2024-01-21T12:38:01.535Z,5.60
2024-01-21T12:40:30.794Z,5.03
2024-01-21T12:42:59.771Z,5.07
2024-01-21T12:45:31.355Z,5.00
2024-01-21T12:48:02.157Z,5.20
2024-01-21T12:50:32.894Z,5.03
2024-01-21T12:53:03.214Z,5.15
2024-01-21T12:55:32.352Z,4.85
2024-01-21T12:58:01.805Z,5.10
2024-01-21T13:00:31.517Z,5.88
2024-01-21T13:03:01.128Z,4.78
2024-01-21T13:05:30.842Z,4.70
2024-01-21T13:08:01.430Z,4.60
2024-01-21T13:10:33.589Z,3.95
2024-01-21T13:13:03.157Z,5.38
2024-01-21T13:15:32.671Z,4.35
2024-01-21T13:18:02.007Z,5.30
2024-01-21T13:20:31.215Z,4.60
2024-01-21T13:23:00.685Z,4.97
2024-01-21T13:25:30.411Z,4.72
2024-01-21T13:28:15.432Z,4.85
2024-01-21T13:30:45.595Z,4.70
2024-01-21T13:33:16.070Z,6.00
2024-01-21T13:35:46.803Z,5.03
2024-01-21T13:38:18.788Z,4.40
2024-01-21T13:40:48.464Z,5.10
2024-01-21T13:43:20.330Z,4.47
2024-01-21T13:45:50.559Z,5.28
2024-01-21T13:48:22.802Z,3.83
2024-01-21T13:50:52.911Z,4.70
2024-01-21T13:53:23.312Z,6.20
2024-01-21T13:55:53.973Z,4.63
2024-01-21T13:58:24.559Z,5.57
2024-01-21T14:00:54.214Z,4.60
2024-01-21T14:03:24.107Z,5.22
2024-01-21T14:05:54.968Z,4.50
2024-01-21T14:08:23.896Z,4.75
2024-01-21T14:10:53.730Z,4.95
2024-01-21T14:13:22.970Z,4.50
2024-01-21T14:15:54.852Z,5.25
2024-01-21T14:18:25.903Z,4.57
2024-01-21T14:20:55.182Z,4.80
2024-01-21T14:23:25.731Z,4.47
2024-01-21T14:25:56.847Z,5.53
2024-01-21T14:28:26.340Z,4.72
2024-01-21T14:30:57.055Z,5.57
2024-01-21T14:33:28.174Z,4.95
2024-01-21T14:35:57.418Z,4.22
2024-01-21T14:38:26.519Z,4.20
2024-01-21T14:40:56.589Z,4.70
2024-01-21T14:43:27.141Z,4.68
2024-01-21T14:45:59.297Z,5.40
2024-01-21T14:48:28.673Z,4.15
2024-01-21T14:51:00.174Z,4.22
2024-01-21T14:53:29.798Z,4.95
2024-01-21T14:55:59.796Z,5.75
2024-01-21T14:58:30.201Z,7.25
2024-01-21T15:01:00.863Z,4.70
2024-01-21T15:03:29.880Z,5.65
2024-01-21T15:06:00.748Z,5.82
2024-01-21T15:08:32.527Z,5.00
2024-01-21T15:11:01.908Z,4.28
2024-01-21T15:13:33.044Z,4.90
2024-01-21T15:16:09.046Z,4.35
2024-01-21T15:18:43.784Z,4.68
2024-01-21T15:21:12.881Z,4.05
2024-01-21T15:23:45.406Z,4.43
2024-01-21T15:26:16.195Z,4.05
2024-01-21T15:28:48.213Z,4.20
2024-01-21T15:31:18.914Z,4.65
2024-01-21T15:33:48.964Z,4.25
2024-01-21T15:36:19.843Z,4.20
2024-01-21T15:38:49.610Z,5.45
2024-01-21T15:41:19.241Z,4.70
2024-01-21T15:43:49.512Z,4.78
2024-01-21T15:46:20.438Z,4.75
2024-01-21T15:48:49.718Z,4.80
2024-01-21T15:51:19.430Z,4.78
2024-01-21T15:53:51.380Z,4.05
2024-01-21T15:56:24.283Z,7.30
2024-01-21T15:58:54.413Z,7.82
2024-01-21T16:01:25.745Z,5.53
2024-01-21T16:03:55.903Z,8.95
2024-01-21T16:06:24.951Z,6.80
2024-01-21T16:08:55.320Z,4.50
2024-01-21T16:11:26.251Z,4.95
2024-01-21T16:13:55.807Z,4.00
2024-01-21T16:16:27.561Z,4.78
2024-01-21T16:18:59.354Z,3.90
2024-01-21T16:21:32.096Z,4.38
2024-01-21T16:24:03.560Z,4.47
2024-01-21T16:26:35.987Z,4.85
2024-01-21T16:29:06.178Z,4.78
2024-01-21T16:31:39.604Z,4.88
2024-01-21T16:34:10.178Z,6.00
2024-01-21T16:36:39.503Z,5.65
2024-01-21T16:39:09.153Z,6.63
2024-01-21T16:41:38.526Z,6.38
2024-01-21T16:44:07.508Z,6.28
2024-01-21T16:46:37.837Z,6.35
2024-01-21T16:49:09.975Z,5.85
2024-01-21T16:51:48.334Z,5.90
2024-01-21T16:54:18.215Z,5.75
2024-01-21T16:56:47.422Z,5.68
2024-01-21T16:59:17.562Z,5.90
2024-01-21T17:01:56.707Z,5.32
2024-01-21T17:04:31.352Z,5.00
2024-01-21T17:09:30.641Z,4.57
2024-01-21T17:12:01.992Z,5.25
2024-01-21T17:14:33.725Z,5.47
2024-01-21T17:17:07.410Z,5.18
2024-01-21T17:19:36.951Z,4.25
2024-01-21T17:22:07.397Z,4.93
2024-01-21T17:24:37.916Z,5.45
2024-01-21T17:27:07.777Z,5.22
2024-01-21T17:29:37.481Z,4.32
2024-01-21T17:32:10.130Z,4.65
2024-01-21T17:34:41.097Z,4.85
2024-01-21T17:37:12.070Z,5.45
2024-01-21T17:39:41.090Z,5.22
2024-01-21T17:42:10.133Z,4.75
2024-01-21T17:44:39.123Z,4.45
2024-01-21T17:47:10.104Z,4.97
2024-01-21T17:49:39.230Z,5.50
2024-01-21T17:52:08.619Z,4.90
2024-01-21T17:54:39.601Z,8.48
2024-01-21T17:57:09.279Z,7.18
2024-01-21T17:59:38.713Z,5.50
2024-01-21T18:02:11.792Z,4.88
2024-01-21T18:04:41.251Z,5.25
2024-01-21T18:07:11.680Z,4.93
2024-01-21T18:09:40.691Z,5.22
2024-01-21T18:12:10.400Z,4.80
2024-01-21T18:14:40.607Z,5.05
2024-01-21T18:17:11.271Z,4.93
2024-01-21T18:19:43.449Z,4.57
2024-01-21T18:22:13.752Z,4.78
2024-01-21T18:24:45.534Z,5.05
2024-01-21T18:27:17.694Z,4.93
2024-01-21T18:29:46.894Z,5.32
2024-01-21T18:32:24.802Z,5.13
2024-01-21T18:34:55.471Z,5.00
2024-01-21T18:37:24.863Z,5.68
2024-01-21T18:39:54.301Z,5.13
2024-01-21T18:42:24.930Z,5.63
2024-01-21T18:44:55.085Z,4.88
2024-01-21T18:47:25.940Z,5.22
2024-01-21T18:49:56.258Z,5.03
2024-01-21T18:52:26.505Z,4.55
2024-01-21T18:54:58.204Z,5.35
2024-01-21T18:57:27.222Z,5.05
2024-01-21T18:59:57.001Z,4.82
2024-01-21T19:02:29.120Z,4.90
2024-01-21T19:04:58.388Z,8.20
2024-01-21T19:07:32.958Z,6.57
2024-01-21T19:10:07.032Z,5.63
2024-01-21T19:12:36.254Z,5.63
2024-01-21T19:15:09.437Z,6.07
2024-01-21T19:20:12.140Z,5.30
2024-01-21T19:22:42.747Z,4.82
2024-01-21T19:25:12.025Z,4.68
2024-01-21T19:27:42.913Z,4.90
2024-01-21T19:30:13.913Z,5.63
2024-01-21T19:32:45.025Z,4.72
2024-01-21T19:35:15.470Z,5.03
2024-01-21T19:37:44.771Z,5.32
2024-01-21T19:40:15.875Z,4.47
2024-01-21T19:42:45.440Z,4.80
2024-01-21T19:45:16.064Z,4.65
2024-01-21T19:47:47.559Z,6.32
2024-01-21T19:50:17.303Z,5.78
2024-01-21T19:52:46.665Z,5.30
2024-01-21T19:55:16.246Z,6.78
2024-01-21T19:57:45.238Z,5.85
2024-01-21T20:00:15.471Z,4.88
2024-01-21T20:02:45.030Z,5.60
2024-01-21T20:05:20.888Z,4.63
2024-01-21T20:07:52.687Z,4.93
2024-01-21T20:10:22.596Z,5.15
2024-01-21T20:12:51.891Z,5.43
2024-01-21T20:15:21.359Z,5.13
2024-01-21T20:17:51.358Z,4.70
2024-01-21T20:20:22.253Z,5.93
2024-01-21T20:22:56.642Z,4.57
2024-01-21T20:25:26.050Z,4.72
2024-01-21T20:27:58.951Z,4.95
2024-01-21T20:30:28.679Z,5.28
2024-01-21T20:32:58.811Z,5.28
2024-01-21T20:35:31.824Z,4.30
2024-01-21T20:38:01.097Z,4.40
2024-01-21T20:40:33.461Z,4.25
2024-01-21T20:43:03.080Z,4.18
2024-01-21T20:45:32.153Z,4.30
2024-01-21T20:48:01.655Z,4.38
2024-01-21T20:50:32.953Z,7.55
2024-01-21T20:53:02.233Z,4.18
2024-01-21T20:55:34.496Z,4.65
2024-01-21T20:58:05.477Z,3.80
2024-01-21T21:00:35.603Z,3.92
2024-01-21T21:03:06.084Z,4.50
2024-01-21T21:05:37.749Z,3.78
2024-01-21T21:08:08.339Z,3.80
2024-01-21T21:10:37.629Z,4.65
2024-01-21T21:13:06.802Z,3.97
2024-01-21T21:15:37.830Z,4.43
2024-01-21T21:18:07.080Z,4.25
2024-01-21T21:20:37.476Z,4.20
2024-01-21T21:23:06.823Z,3.70
2024-01-21T21:25:36.548Z,4.63
2024-01-21T21:28:06.646Z,3.25
2024-01-21T21:30:35.566Z,4.00
2024-01-21T21:33:05.985Z,3.50
2024-01-21T21:35:39.977Z,3.28
2024-01-21T21:38:08.976Z,3.72
2024-01-21T21:40:38.516Z,3.33
2024-01-21T21:43:09.987Z,3.65
2024-01-21T21:45:40.583Z,3.50
2024-01-21T21:48:11.907Z,3.33
2024-01-21T21:50:43.053Z,4.05
2024-01-21T21:53:12.564Z,3.22
2024-01-21T21:55:46.718Z,3.40
2024-01-21T21:58:16.103Z,3.83
2024-01-21T22:00:45.663Z,3.70
2024-01-21T22:03:19.144Z,3.70
2024-01-21T22:05:50.286Z,3.67
2024-01-21T22:08:19.549Z,4.25
2024-01-21T22:10:48.720Z,3.92
2024-01-21T22:13:18.021Z,4.03
2024-01-21T22:15:47.388Z,4.32
2024-01-21T22:18:16.709Z,3.65
2024-01-21T22:20:46.197Z,4.43
2024-01-21T22:23:16.963Z,3.47
2024-01-21T22:25:47.056Z,3.95
2024-01-21T22:28:16.344Z,3.72
2024-01-21T22:30:46.053Z,3.72
2024-01-21T22:33:15.441Z,3.83
2024-01-21T22:35:44.815Z,3.67
2024-01-21T22:38:15.392Z,3.85
2024-01-21T22:40:48.272Z,3.97
2024-01-21T22:43:17.192Z,3.85
2024-01-21T22:45:46.405Z,3.90
2024-01-21T22:48:15.375Z,4.03
2024-01-21T22:50:45.416Z,3.83
2024-01-21T22:53:14.904Z,3.50
2024-01-21T22:55:44.608Z,3.70
2024-01-21T22:58:17.653Z,3.97
2024-01-21T23:00:46.878Z,2.88
2024-01-21T23:03:15.941Z,3.67
2024-01-21T23:05:46.624Z,3.17
2024-01-21T23:08:15.611Z,2.90
2024-01-21T23:10:44.891Z,3.45
2024-01-21T23:13:17.589Z,3.13
2024-01-21T23:15:46.838Z,3.70
2024-01-21T23:18:16.701Z,2.95
2024-01-21T23:20:45.878Z,3.30
2024-01-21T23:23:15.511Z,3.25
2024-01-21T23:25:44.499Z,3.17
2024-01-21T23:28:14.131Z,2.45
2024-01-21T23:30:45.056Z,2.45
2024-01-21T23:33:14.126Z,2.92
2024-01-21T23:35:43.767Z,4.38
2024-01-21T23:38:13.309Z,2.80
2024-01-21T23:40:43.072Z,3.20
2024-01-21T23:43:12.318Z,3.08
2024-01-21T23:45:41.364Z,3.53
2024-01-21T23:48:12.531Z,3.20
2024-01-21T23:50:42.213Z,2.75
2024-01-21T23:53:11.534Z,2.97
2024-01-21T23:55:40.475Z,2.63
2024-01-21T23:58:09.940Z,2.60
